Time;durP1;ratioP1;P1;durP2;ratioP2;P2;SDS_P1;SDS_P2;PMS_P1;PMS_P2;Temp;Humidity;BMP_temperature;BMP_pressure;BME280_temperature;BME280_humidity;BME280_pressure;Samples;Min_cycle;Max_cycle;Signal;HPM_P1;HPM_P2
2021/07/02 12:51:30;;;;;;;519.60;442.25;;;;;;;;;;4949429;28;20058;-74
2021/07/02 12:56:41;;;;;;;550.00;490.85;;;;;;;;;;4939396;29;20041;-76
2021/07/02 12:59:13;;;;;;;594.53;534.58;;;;;;;;;;4951742;29;20027;-75
2021/07/02 13:01:46;;;;;;;645.92;584.65;;;;;;;;;;4932788;29;20135;-76
2021/07/02 13:04:12;;;;;;;682.38;620.83;;;;;;;;;;4952694;28;20424;-76
2021/07/02 13:06:38;;;;;;;716.50;654.30;;;;;;;;;;4937660;29;20070;-75
2021/07/02 13:09:04;;;;;;;748.28;685.53;;;;;;;;;;4943660;28;20573;-76
2021/07/02 13:11:32;;;;;;;744.83;682.53;;;;;;;;;;4945228;29;20067;-75
2021/07/02 13:13:58;;;;;;;762.53;699.73;;;;;;;;;;4950658;29;20039;-75
2021/07/02 13:16:24;;;;;;;756.78;693.85;;;;;;;;;;4931711;28;20031;-75
2021/07/02 13:18:54;;;;;;;760.10;696.90;;;;;;;;;;4952010;28;20047;-75
2021/07/02 13:21:20;;;;;;;;;;;;;;;;;;4948170;29;20110;-76
2021/07/02 13:23:57;;;;;;;693.92;632.70;;;;;;;;;;4949934;29;20005;-75
2021/07/02 13:26:29;;;;;;;705.53;643.50;;;;;;;;;;4946078;29;20479;-75
2021/07/02 13:29:05;;;;;;;706.70;645.13;;;;;;;;;;4952065;29;20019;-76
2021/07/02 13:31:32;;;;;;;690.95;629.30;;;;;;;;;;4940063;29;20023;-75
2021/07/02 13:34:01;;;;;;;696.10;634.15;;;;;;;;;;4949484;29;20034;-75
2021/07/02 13:36:36;;;;;;;699.25;636.92;;;;;;;;;;4933333;28;20118;-76
2021/07/02 13:39:07;;;;;;;711.25;648.75;;;;;;;;;;4943942;28;20066;-76
2021/07/02 13:41:33;;;;;;;697.55;635.65;;;;;;;;;;4937294;29;20031;-75
2021/07/02 13:44:05;;;;;;;705.85;643.47;;;;;;;;;;4949785;28;20427;-76
2021/07/02 13:46:32;;;;;;;705.95;643.78;;;;;;;;;;4950726;29;20027;-75
2021/07/02 13:48:58;;;;;;;706.40;644.35;;;;;;;;;;4934112;29;20035;-75
2021/07/02 13:51:25;;;;;;;718.35;655.90;;;;;;;;;;4933489;29;20074;-76
2021/07/02 13:53:51;;;;;;;715.65;653.53;;;;;;;;;;4936781;29;20035;-76
2021/07/02 13:56:37;;;;;;;701.65;639.95;;;;;;;;;;4956289;28;20062;-76
2021/07/02 13:59:03;;;;;;;709.47;647.33;;;;;;;;;;4952101;29;20031;-76
2021/07/02 14:01:29;;;;;;;700.65;638.72;;;;;;;;;;4954352;29;20043;-75
2021/07/02 14:03:55;;;;;;;685.95;624.65;;;;;;;;;;4948841;28;20139;-75
2021/07/02 14:06:21;;;;;;;702.80;640.70;;;;;;;;;;4934771;29;20450;-77
2021/07/02 14:08:57;;;;;;;705.00;643.08;;;;;;;;;;4951653;28;20076;-78
2021/07/02 14:11:23;;;;;;;716.10;653.53;;;;;;;;;;4951627;28;20051;-75
2021/07/02 14:13:50;;;;;;;706.58;644.58;;;;;;;;;;4950192;29;20055;-76
2021/07/02 14:16:16;;;;;;;703.38;641.10;;;;;;;;;;4952004;28;20019;-76
2021/07/02 14:18:42;;;;;;;697.80;636.13;;;;;;;;;;4938672;29;20385;-75
2021/07/02 14:21:14;;;;;;;685.97;624.50;;;;;;;;;;4953299;28;20035;-76
2021/07/02 14:23:40;;;;;;;680.30;618.78;;;;;;;;;;4935499;29;20031;-75
2021/07/02 14:26:06;;;;;;;657.20;596.72;;;;;;;;;;4937513;29;20111;-77
2021/07/02 14:28:32;;;;;;;652.13;591.60;;;;;;;;;;4950289;29;20118;-75
2021/07/02 14:30:58;;;;;;;632.55;572.50;;;;;;;;;;4953759;28;20106;-76
2021/07/02 14:33:30;;;;;;;629.83;569.95;;;;;;;;;;4950822;29;20047;-75
2021/07/02 14:35:56;;;;;;;628.22;568.10;;;;;;;;;;4935973;29;20122;-75
2021/07/02 14:38:22;;;;;;;639.45;578.78;;;;;;;;;;4939565;29;20055;-75
2021/07/02 14:40:49;;;;;;;634.30;573.90;;;;;;;;;;4937237;29;20059;-75
2021/07/02 14:43:15;;;;;;;633.35;573.25;;;;;;;;;;4930110;29;20023;-76
2021/07/02 14:45:46;;;;;;;630.97;570.85;;;;;;;;;;4951381;28;20459;-76
2021/07/02 14:48:12;;;;;;;618.92;559.20;;;;;;;;;;4953001;29;20052;-76
2021/07/02 14:50:38;;;;;;;618.03;557.75;;;;;;;;;;4955599;28;20050;-76
2021/07/02 14:53:05;;;;;;;610.08;550.17;;;;;;;;;;4933428;29;20027;-75
2021/07/02 14:55:35;;;;;;;607.63;547.60;;;;;;;;;;4943631;29;20071;-77
2021/07/02 14:58:05;;;;;;;601.60;541.70;;;;;;;;;;4950841;29;21033;-76
2021/07/02 15:00:32;;;;;;;593.63;533.83;;;;;;;;;;4957992;28;20078;-76
2021/07/02 15:02:58;;;;;;;587.28;527.70;;;;;;;;;;4938338;29;20038;-75
2021/07/02 15:05:24;;;;;;;591.05;531.38;;;;;;;;;;4937113;29;20027;-75
2021/07/02 15:07:51;;;;;;;598.38;538.40;;;;;;;;;;4949645;29;20077;-75
2021/07/02 15:10:27;;;;;;;594.70;534.85;;;;;;;;;;4943113;29;20492;-75
2021/07/02 15:12:53;;;;;;;597.15;537.22;;;;;;;;;;4949745;28;20027;-74
2021/07/02 15:15:19;;;;;;;604.85;544.55;;;;;;;;;;4935262;29;20605;-76
2021/07/02 15:17:45;;;;;;;615.38;555.05;;;;;;;;;;4949968;29;20023;-76
2021/07/02 15:20:11;;;;;;;614.25;554.05;;;;;;;;;;4946845;29;20479;-75
2021/07/02 15:22:40;;;;;;;611.50;551.60;;;;;;;;;;4935865;29;20038;-75
2021/07/02 15:25:07;;;;;;;618.88;558.38;;;;;;;;;;4946456;29;20047;-76
2021/07/02 15:27:33;;;;;;;621.92;561.65;;;;;;;;;;4935502;29;20636;-77
2021/07/02 15:30:18;;;;;;;622.17;562.05;;;;;;;;;;4952083;28;20094;-76
2021/07/02 15:33:08;;;;;;;621.30;561.08;;;;;;;;;;4939497;29;20032;-74
2021/07/02 15:35:34;;;;;;;;;;;;;;;;;;4949105;29;20035;-75
2021/07/02 15:38:00;;;;;;;608.50;548.20;;;;;;;;;;4950602;29;19914;-77
2021/07/02 15:40:26;;;;;;;613.05;552.50;;;;;;;;;;4931765;29;20032;-75
2021/07/02 15:42:53;;;;;;;609.83;549.63;;;;;;;;;;4947078;28;20034;-76
2021/07/02 15:45:19;;;;;;;614.13;553.88;;;;;;;;;;4936949;29;20055;-75
2021/07/02 15:47:46;;;;;;;615.15;554.63;;;;;;;;;;4951930;29;20024;-75
2021/07/02 15:50:12;;;;;;;620.38;559.60;;;;;;;;;;4949328;28;20767;-75
2021/07/02 15:52:38;;;;;;;624.53;563.55;;;;;;;;;;4950566;28;20089;-75
2021/07/02 15:55:10;;;;;;;636.63;574.67;;;;;;;;;;4951873;28;20105;-73
2021/07/02 15:57:40;;;;;;;623.17;562.28;;;;;;;;;;4950976;28;20086;-73
2021/07/02 16:00:08;;;;;;;613.15;552.60;;;;;;;;;;4937631;29;20471;-74
2021/07/02 16:02:35;;;;;;;613.97;553.33;;;;;;;;;;4952273;29;20039;-73
2021/07/02 16:05:01;;;;;;;611.00;550.08;;;;;;;;;;4931881;29;20078;-74
2021/07/02 16:07:48;;;;;;;594.33;534.45;;;;;;;;;;4949354;29;20105;-75
2021/07/02 16:10:15;;;;;;;605.15;544.95;;;;;;;;;;4942317;29;20059;-75
2021/07/02 16:12:41;;;;;;;607.20;545.88;;;;;;;;;;4933960;29;20063;-75
2021/07/02 16:15:07;;;;;;;608.97;548.33;;;;;;;;;;4942362;29;20069;-74
2021/07/02 16:17:33;;;;;;;609.35;548.75;;;;;;;;;;4941266;29;20035;-75
2021/07/02 16:20:02;;;;;;;605.05;544.67;;;;;;;;;;4942877;28;20115;-75
2021/07/02 16:22:28;;;;;;;612.88;552.00;;;;;;;;;;4926682;28;20754;-74
2021/07/02 16:24:54;;;;;;;607.95;547.35;;;;;;;;;;4932009;29;20023;-74
2021/07/02 16:27:21;;;;;;;599.03;538.53;;;;;;;;;;4950329;28;20027;-74
2021/07/02 16:29:47;;;;;;;595.95;535.60;;;;;;;;;;4927779;29;20031;-75
2021/07/02 16:32:28;;;;;;;588.67;528.47;;;;;;;;;;4948316;28;20488;-75
2021/07/02 16:34:54;;;;;;;588.10;527.65;;;;;;;;;;4933290;29;20541;-74
2021/07/02 16:37:20;;;;;;;588.38;528.35;;;;;;;;;;4951904;28;20031;-75
2021/07/02 16:39:46;;;;;;;585.25;525.22;;;;;;;;;;4932885;29;20451;-74
2021/07/02 16:42:14;;;;;;;585.08;524.70;;;;;;;;;;4940243;29;20062;-75
2021/07/02 16:44:40;;;;;;;583.85;523.53;;;;;;;;;;4951871;28;20034;-73
2021/07/02 16:47:06;;;;;;;588.75;528.63;;;;;;;;;;4937453;29;20024;-74
2021/07/02 16:49:32;;;;;;;587.03;526.70;;;;;;;;;;4937131;29;20034;-73
2021/07/02 16:51:58;;;;;;;577.83;517.97;;;;;;;;;;4940797;28;20034;-77
2021/07/02 16:54:27;;;;;;;583.05;523.03;;;;;;;;;;4933053;29;20617;-77
2021/07/02 16:56:54;;;;;;;602.33;540.50;;;;;;;;;;4953498;28;20372;-76
2021/07/02 16:59:20;;;;;;;588.72;528.00;;;;;;;;;;4959557;28;20027;-77
2021/07/02 17:01:46;;;;;;;587.20;526.60;;;;;;;;;;4934912;29;20041;-77
2021/07/02 17:04:12;;;;;;;592.78;532.10;;;;;;;;;;4950017;28;20554;-74
2021/07/02 17:07:03;;;;;;;582.40;522.55;;;;;;;;;;4937180;29;20047;-77
2021/07/02 17:09:29;;;;;;;578.75;518.25;;;;;;;;;;4946415;28;20037;-78
2021/07/02 17:11:56;;;;;;;581.72;521.83;;;;;;;;;;4946878;29;20503;-78
2021/07/02 17:14:24;;;;;;;580.65;520.55;;;;;;;;;;4932545;29;20028;-77
2021/07/02 17:16:50;;;;;;;590.53;530.05;;;;;;;;;;4938498;29;20158;-77
2021/07/02 17:19:16;;;;;;;584.50;524.38;;;;;;;;;;4934059;29;20151;-78
2021/07/02 17:21:42;;;;;;;590.13;529.58;;;;;;;;;;4960093;28;20042;-77
2021/07/02 17:24:08;;;;;;;589.72;529.40;;;;;;;;;;4934110;29;21011;-78
2021/07/02 17:26:34;;;;;;;584.67;524.38;;;;;;;;;;4950170;29;20019;-76
2021/07/02 17:29:24;;;;;;;581.45;521.33;;;;;;;;;;4938093;29;20027;-77
2021/07/02 17:31:50;;;;;;;;;;;;;;;;;;4944695;29;20028;-77
2021/07/02 17:34:16;;;;;;;564.65;504.42;;;;;;;;;;4953609;28;19911;-77
2021/07/02 17:36:42;;;;;;;569.50;509.70;;;;;;;;;;4946241;29;20510;-77
2021/07/02 17:39:08;;;;;;;571.92;511.90;;;;;;;;;;4953746;29;20137;-76
2021/07/02 17:41:37;;;;;;;570.60;510.85;;;;;;;;;;4954096;29;20046;-76
2021/07/02 17:44:04;;;;;;;588.03;527.50;;;;;;;;;;4952688;29;20487;-77
2021/07/02 17:46:31;;;;;;;594.40;533.53;;;;;;;;;;4943121;28;20030;-76
2021/07/02 17:48:57;;;;;;;588.60;528.15;;;;;;;;;;4945226;29;20023;-79
2021/07/02 17:51:23;;;;;;;584.25;524.17;;;;;;;;;;4953839;29;20047;-78
2021/07/02 17:53:54;;;;;;;573.78;513.83;;;;;;;;;;4940064;29;20038;-78
2021/07/02 17:56:21;;;;;;;590.42;529.75;;;;;;;;;;4946370;29;20057;-78
2021/07/02 17:58:47;;;;;;;583.17;522.92;;;;;;;;;;4939051;29;20471;-75
2021/07/02 18:01:13;;;;;;;588.08;527.45;;;;;;;;;;4937564;28;20031;-76
2021/07/02 18:03:40;;;;;;;593.35;532.28;;;;;;;;;;4940213;29;20585;-75
2021/07/02 18:06:07;;;;;;;591.50;530.45;;;;;;;;;;4926453;29;20377;-77
2021/07/02 18:08:35;;;;;;;589.30;528.33;;;;;;;;;;4943539;29;20031;-76
2021/07/02 18:11:01;;;;;;;585.88;524.75;;;;;;;;;;4942187;29;20036;-77
2021/07/02 18:13:29;;;;;;;593.42;532.10;;;;;;;;;;4955269;29;20748;-80
2021/07/02 18:15:55;;;;;;;575.00;514.85;;;;;;;;;;4938325;29;20046;-81
2021/07/02 18:18:36;;;;;;;590.05;528.75;;;;;;;;;;4950354;29;20031;-76
2021/07/02 18:21:02;;;;;;;581.17;520.33;;;;;;;;;;4939767;29;20083;-78
2021/07/02 18:23:28;;;;;;;570.33;510.38;;;;;;;;;;4938636;29;20034;-78
2021/07/02 18:25:56;;;;;;;565.25;505.33;;;;;;;;;;4944546;29;20019;-77
2021/07/02 18:28:21;;;;;;;582.42;521.92;;;;;;;;;;4939023;29;20032;-76
2021/07/02 18:31:06;;;;;;;568.63;508.83;;;;;;;;;;4933574;29;20861;-75
2021/07/02 18:33:32;;;;;;;555.67;496.30;;;;;;;;;;4952099;29;20387;-76
2021/07/02 18:35:58;;;;;;;562.90;503.15;;;;;;;;;;4938413;29;20042;-77
2021/07/02 18:38:24;;;;;;;567.15;507.33;;;;;;;;;;4936726;29;20034;-77
2021/07/02 18:40:50;;;;;;;563.75;504.13;;;;;;;;;;4948119;28;20077;-77
2021/07/02 18:43:22;;;;;;;562.10;501.92;;;;;;;;;;4953316;29;20024;-78
2021/07/02 18:45:48;;;;;;;551.00;491.90;;;;;;;;;;4949033;28;20123;-77
2021/07/02 18:48:14;;;;;;;552.65;493.50;;;;;;;;;;4938074;29;20134;-77
2021/07/02 18:50:45;;;;;;;561.85;502.25;;;;;;;;;;4942180;29;20127;-78
2021/07/02 18:53:10;;;;;;;;;;;;;;;;;;4946624;29;20119;-79
2021/07/02 18:55:42;;;;;;;538.03;479.10;;;;;;;;;;4954039;28;20001;-78
2021/07/02 18:58:08;;;;;;;551.22;491.75;;;;;;;;;;4942217;29;20023;-78
2021/07/02 19:00:35;;;;;;;556.70;497.27;;;;;;;;;;4939033;29;20039;-77
2021/07/02 19:03:01;;;;;;;551.75;492.42;;;;;;;;;;4935043;29;20023;-77
2021/07/02 19:05:27;;;;;;;553.50;494.10;;;;;;;;;;4936830;29;20027;-77
2021/07/02 19:07:59;;;;;;;560.55;500.52;;;;;;;;;;4942766;29;20030;-77
2021/07/02 19:10:25;;;;;;;562.78;502.73;;;;;;;;;;4941973;29;20415;-77
2021/07/02 19:12:51;;;;;;;554.75;494.92;;;;;;;;;;4957882;28;20031;-77
2021/07/02 19:15:18;;;;;;;553.67;494.20;;;;;;;;;;4940576;29;20019;-77
2021/07/02 19:17:46;;;;;;;548.20;488.98;;;;;;;;;;4953910;29;20027;-77
2021/07/02 19:23:46;;;;;;;547.03;487.23;;;;;;;;;;4949157;29;20133;-77
2021/07/02 19:26:12;;;;;;;545.97;486.17;;;;;;;;;;4937271;29;20019;-77
2021/07/02 19:28:39;;;;;;;543.20;483.75;;;;;;;;;;4934949;29;20027;-77
2021/07/02 19:31:07;;;;;;;548.88;488.75;;;;;;;;;;4940537;29;20027;-77
2021/07/02 19:33:33;;;;;;;541.33;481.83;;;;;;;;;;4938527;29;20483;-76
2021/07/02 19:36:36;;;;;;;540.53;481.48;;;;;;;;;;4955027;28;20031;-76
2021/07/02 19:39:06;;;;;;;531.70;473.05;;;;;;;;;;4949846;28;20032;-75
2021/07/02 19:41:33;;;;;;;533.67;472.58;;;;;;;;;;4936620;28;20475;-76
2021/07/02 19:43:59;;;;;;;536.33;476.08;;;;;;;;;;4926492;29;20031;-76
2021/07/02 19:46:25;;;;;;;539.38;479.33;;;;;;;;;;4947653;28;20082;-76
2021/07/02 19:48:54;;;;;;;547.08;486.75;;;;;;;;;;4951245;28;20494;-76
2021/07/02 19:51:21;;;;;;;550.33;480.80;;;;;;;;;;4943936;28;20391;-76
2021/07/02 19:53:47;;;;;;;537.72;473.73;;;;;;;;;;4942296;29;20131;-76
2021/07/02 19:56:13;;;;;;;531.97;468.88;;;;;;;;;;4948497;29;20118;-76
2021/07/02 19:58:40;;;;;;;534.83;470.75;;;;;;;;;;4936712;29;20779;-76
2021/07/02 20:01:27;;;;;;;541.95;481.85;;;;;;;;;;4950769;29;20035;-76
2021/07/02 20:03:53;;;;;;;540.90;476.52;;;;;;;;;;4948793;28;20471;-74
2021/07/02 20:06:20;;;;;;;540.30;473.45;;;;;;;;;;4943852;29;20042;-74
2021/07/02 20:08:46;;;;;;;538.60;472.42;;;;;;;;;;4945984;29;20019;-74
2021/07/02 20:11:13;;;;;;;537.75;468.13;;;;;;;;;;4952244;29;20114;-74
2021/07/02 20:13:44;;;;;;;540.65;470.00;;;;;;;;;;4954037;28;20026;-74
2021/07/02 20:16:10;;;;;;;538.40;470.35;;;;;;;;;;4952843;29;20027;-74
2021/07/02 20:18:37;;;;;;;539.05;468.55;;;;;;;;;;4941025;29;20093;-74
2021/07/02 20:21:03;;;;;;;538.75;466.33;;;;;;;;;;4936765;29;20395;-74
2021/07/02 20:23:29;;;;;;;539.40;465.45;;;;;;;;;;4943407;28;20161;-74
2021/07/02 20:25:56;;;;;;;538.85;459.90;;;;;;;;;;4957534;28;20542;-74
2021/07/02 20:28:22;;;;;;;543.13;466.90;;;;;;;;;;4956362;28;20030;-74
2021/07/02 20:30:48;;;;;;;537.90;461.05;;;;;;;;;;4951797;28;20384;-74
2021/07/02 20:33:14;;;;;;;539.13;456.38;;;;;;;;;;4940708;29;20565;-74
2021/07/02 20:35:40;;;;;;;542.13;461.95;;;;;;;;;;4949247;28;20041;-73
2021/07/02 20:38:07;;;;;;;555.53;470.58;;;;;;;;;;4945495;29;20495;-74
2021/07/02 20:40:33;;;;;;;553.10;471.88;;;;;;;;;;4935872;29;20407;-74
2021/07/02 20:42:59;;;;;;;555.53;468.90;;;;;;;;;;4951108;29;20106;-74
2021/07/02 20:45:25;;;;;;;557.38;476.85;;;;;;;;;;4938722;28;20159;-74
2021/07/02 20:47:54;;;;;;;547.65;464.95;;;;;;;;;;4956414;28;20471;-74
2021/07/02 20:50:20;;;;;;;547.30;465.23;;;;;;;;;;4946440;29;20062;-74
2021/07/02 20:52:46;;;;;;;544.67;453.38;;;;;;;;;;4941481;29;20035;-74
2021/07/02 20:55:13;;;;;;;549.10;460.00;;;;;;;;;;4954827;28;20102;-74
2021/07/02 20:57:39;;;;;;;561.03;460.02;;;;;;;;;;4952883;28;20942;-74
2021/07/02 21:00:08;;;;;;;546.45;457.00;;;;;;;;;;4929457;29;20490;-75
2021/07/02 21:02:34;;;;;;;547.85;459.50;;;;;;;;;;4953211;28;20031;-75
2021/07/02 21:05:00;;;;;;;549.58;457.88;;;;;;;;;;4932372;29;20038;-76
2021/07/02 21:07:26;;;;;;;550.85;457.65;;;;;;;;;;4947978;29;20027;-75
2021/07/02 21:09:58;;;;;;;549.55;457.23;;;;;;;;;;4932759;29;20111;-75
2021/07/02 21:12:24;;;;;;;550.10;452.08;;;;;;;;;;4956682;28;20031;-75
2021/07/02 21:14:50;;;;;;;555.03;459.67;;;;;;;;;;4939522;29;20065;-75
2021/07/02 21:17:16;;;;;;;549.28;456.38;;;;;;;;;;4942472;28;20031;-75
2021/07/02 21:19:42;;;;;;;548.85;454.40;;;;;;;;;;4942547;29;20056;-75
2021/07/02 21:22:27;;;;;;;547.33;454.50;;;;;;;;;;4935693;29;20082;-75
2021/07/02 21:24:53;;;;;;;551.03;451.85;;;;;;;;;;4948248;29;20028;-75
2021/07/02 21:27:18;;;;;;;547.47;445.73;;;;;;;;;;4939647;29;20024;-75
2021/07/02 21:29:44;;;;;;;545.38;449.42;;;;;;;;;;4948960;29;20059;-75
2021/07/02 21:32:15;;;;;;;543.20;443.30;;;;;;;;;;4938128;29;20046;-75
2021/07/02 21:34:41;;;;;;;548.97;450.20;;;;;;;;;;4938613;29;20039;-76
2021/07/02 21:37:07;;;;;;;547.88;450.88;;;;;;;;;;4952369;29;20094;-75
2021/07/02 21:39:33;;;;;;;544.60;442.65;;;;;;;;;;4950662;29;20468;-75
2021/07/02 21:41:59;;;;;;;546.85;445.33;;;;;;;;;;4955455;28;20031;-75
2021/07/02 21:44:28;;;;;;;545.55;440.75;;;;;;;;;;4953638;28;20023;-75
2021/07/02 21:46:54;;;;;;;548.42;438.80;;;;;;;;;;4936699;29;20487;-75
2021/07/02 21:49:20;;;;;;;557.00;452.48;;;;;;;;;;4931384;28;20051;-75
2021/07/02 21:51:46;;;;;;;561.95;453.30;;;;;;;;;;4936432;29;20043;-75
2021/07/02 21:54:12;;;;;;;567.92;458.42;;;;;;;;;;4937327;29;20031;-75
2021/07/02 21:57:11;;;;;;;554.60;444.33;;;;;;;;;;4943376;29;20126;-75
2021/07/02 21:59:37;;;;;;;548.30;443.52;;;;;;;;;;4922203;29;20626;-75
2021/07/02 22:02:04;;;;;;;554.22;447.33;;;;;;;;;;4946916;29;20046;-75
2021/07/02 22:04:30;;;;;;;549.40;439.05;;;;;;;;;;4932550;28;20474;-76
2021/07/02 22:06:56;;;;;;;546.88;443.10;;;;;;;;;;4954444;28;20046;-76
2021/07/02 22:09:28;;;;;;;545.25;433.90;;;;;;;;;;4938010;29;20027;-75
2021/07/02 22:11:55;;;;;;;552.03;434.17;;;;;;;;;;4937838;29;20054;-73
2021/07/02 22:14:21;;;;;;;555.05;439.58;;;;;;;;;;4951759;28;20023;-75
2021/07/02 22:16:48;;;;;;;550.63;430.15;;;;;;;;;;4949073;29;20051;-75
2021/07/02 22:19:14;;;;;;;542.70;428.83;;;;;;;;;;4936875;29;20034;-75
2021/07/02 22:21:41;;;;;;;543.65;430.38;;;;;;;;;;4934236;29;20038;-75
2021/07/02 22:24:07;;;;;;;543.92;426.67;;;;;;;;;;4948123;29;20478;-74
2021/07/02 22:26:33;;;;;;;542.30;429.38;;;;;;;;;;4932978;28;20023;-75
2021/07/02 22:29:00;;;;;;;552.17;433.92;;;;;;;;;;4943801;29;20494;-75
2021/07/02 22:31:27;;;;;;;550.95;442.45;;;;;;;;;;4946602;28;20111;-75
2021/07/02 22:33:57;;;;;;;554.20;429.08;;;;;;;;;;4956344;28;20034;-75
2021/07/02 22:36:24;;;;;;;561.05;438.25;;;;;;;;;;4928480;29;20162;-75
2021/07/02 22:38:51;;;;;;;557.30;430.75;;;;;;;;;;4950832;29;20865;-75
2021/07/02 22:41:18;;;;;;;566.33;444.48;;;;;;;;;;4952967;28;20020;-74
2021/07/02 22:43:44;;;;;;;583.20;461.38;;;;;;;;;;4936110;29;20051;-75
2021/07/02 22:46:10;;;;;;;677.65;552.35;;;;;;;;;;4937754;29;20051;-75
2021/07/02 22:48:36;;;;;;;679.72;544.83;;;;;;;;;;4949877;29;20040;-75
2021/07/02 22:51:02;;;;;;;622.80;491.23;;;;;;;;;;4946442;28;20058;-75
2021/07/02 22:53:28;;;;;;;617.67;480.25;;;;;;;;;;4954471;28;20383;-74
2021/07/02 22:55:54;;;;;;;649.30;511.27;;;;;;;;;;4937040;28;20030;-74
2021/07/02 22:58:20;;;;;;;580.63;455.85;;;;;;;;;;4934649;28;20122;-74
2021/07/02 23:00:46;;;;;;;551.88;422.35;;;;;;;;;;4933963;29;20035;-75
2021/07/02 23:03:18;;;;;;;550.42;421.42;;;;;;;;;;4938781;29;20095;-74
2021/07/02 23:05:44;;;;;;;544.28;422.50;;;;;;;;;;4948638;28;20031;-75
2021/07/02 23:08:10;;;;;;;564.58;442.75;;;;;;;;;;4933164;28;20038;-74
2021/07/02 23:10:36;;;;;;;572.53;447.08;;;;;;;;;;4945940;28;20476;-75
2021/07/02 23:13:02;;;;;;;541.63;421.58;;;;;;;;;;4952425;28;20029;-74
2021/07/02 23:15:31;;;;;;;553.58;428.58;;;;;;;;;;4930537;28;20385;-74
2021/07/02 23:17:57;;;;;;;552.25;418.70;;;;;;;;;;4951054;28;22226;-74
2021/07/02 23:20:23;;;;;;;599.17;460.75;;;;;;;;;;4949658;28;20031;-74
2021/07/02 23:22:49;;;;;;;545.95;417.65;;;;;;;;;;4951654;28;20058;-74
2021/07/02 23:25:15;;;;;;;557.38;433.35;;;;;;;;;;4950569;28;20030;-74
2021/07/02 23:27:43;;;;;;;554.42;423.52;;;;;;;;;;4933734;28;20020;-74
2021/07/02 23:30:09;;;;;;;546.70;420.23;;;;;;;;;;4948836;28;20027;-74
2021/07/02 23:32:35;;;;;;;546.50;418.00;;;;;;;;;;4934626;28;20391;-74
2021/07/02 23:35:01;;;;;;;536.17;404.40;;;;;;;;;;4933742;29;20114;-74
2021/07/02 23:37:27;;;;;;;546.90;415.50;;;;;;;;;;4946904;28;20038;-74
2021/07/02 23:39:56;;;;;;;538.10;411.23;;;;;;;;;;4932278;29;20063;-74
2021/07/02 23:42:22;;;;;;;540.80;413.05;;;;;;;;;;4932173;29;20035;-73
2021/07/02 23:44:48;;;;;;;546.40;417.38;;;;;;;;;;4934134;29;20023;-74
2021/07/02 23:47:14;;;;;;;542.20;411.73;;;;;;;;;;4931930;28;20547;-74
2021/07/02 23:49:40;;;;;;;552.65;424.60;;;;;;;;;;4945675;28;20031;-73
2021/07/02 23:52:12;;;;;;;543.88;418.50;;;;;;;;;;4938839;29;20126;-73
2021/07/02 23:54:38;;;;;;;542.03;405.23;;;;;;;;;;4947177;28;20031;-73
2021/07/02 23:57:04;;;;;;;535.22;404.20;;;;;;;;;;4932036;29;20427;-73
2021/07/02 23:59:30;;;;;;;539.35;401.77;;;;;;;;;;4929185;29;20034;-73
